TRA44I EHRD-LGIR
Flight info
| Callsign | TRA44I |
|---|---|
| Flight time | N/A |
| Altitude | 37000 |
| Route | LUNIX Z739 MISGO DCT DOJOH DCT DODEN DCT NEGIX DCT DINKU M867 XERUM DCT BAVAX DCT RADIZ DCT NEMEK DCT ELTIB DCT GLOMY DCT INLOT DCT PINDO DCT KEA UL607 GIVIS T514 XAVIS |
| Aircraft | B738/M-SDE2E3FGHIRWXY/LB1 |
Departure
| Time | 2026-05-05 17:43 |
|---|---|
| Airport | Rotterdam The Hague Airport (EHRD) |
Arrival
| Time | N/A |
|---|---|
| Airport | Heraklion International Nikos Kazantzakis Airport (LGIR) |
| Time | Latitude | Longitude | Altitude | Speed | Heading |
|---|---|---|---|---|---|
| 2026-05-05 17:22 | 51.94994 | 4.43447 | 0 ft | 0 kts | 326° |
| 2026-05-05 17:37 | 51.94998 | 4.43443 | 0 ft | 2 kts | 326° |
| 2026-05-05 17:37 | 51.95025 | 4.43426 | 0 ft | 5 kts | 12° |
| 2026-05-05 17:37 | 51.95049 | 4.43470 | 0 ft | 5 kts | 56° |
| 2026-05-05 17:38 | 51.95069 | 4.43519 | 0 ft | 5 kts | 56° |
| 2026-05-05 17:38 | 51.95089 | 4.43566 | 1 ft | 5 kts | 47° |
| 2026-05-05 17:38 | 51.95122 | 4.43561 | 2 ft | 5 kts | 327° |
| 2026-05-05 17:38 | 51.95156 | 4.43526 | 0 ft | 6 kts | 327° |
| 2026-05-05 17:39 | 51.95199 | 4.43482 | 1 ft | 8 kts | 327° |
| 2026-05-05 17:39 | 51.95242 | 4.43412 | 0 ft | 10 kts | 269° |
| 2026-05-05 17:39 | 51.95208 | 4.43313 | 0 ft | 11 kts | 236° |
| 2026-05-05 17:39 | 51.95160 | 4.43192 | 1 ft | 13 kts | 240° |
| 2026-05-05 17:40 | 51.95125 | 4.43077 | 0 ft | 8 kts | 246° |
| 2026-05-05 17:40 | 51.95114 | 4.43036 | 0 ft | 2 kts | 248° |
| 2026-05-05 17:40 | 51.95112 | 4.43028 | 0 ft | 0 kts | 251° |
| 2026-05-05 17:41 | 51.95112 | 4.43025 | 0 ft | 1 kts | 251° |
| 2026-05-05 17:41 | 51.95110 | 4.42977 | 0 ft | 8 kts | 279° |
| 2026-05-05 17:42 | 51.95160 | 4.42899 | 0 ft | 12 kts | 327° |
| 2026-05-05 17:42 | 51.95216 | 4.42856 | 1 ft | 5 kts | 9° |
| 2026-05-05 17:42 | 51.95234 | 4.42887 | 2 ft | 2 kts | 57° |
| 2026-05-05 17:42 | 51.95235 | 4.42890 | 2 ft | 5 kts | 57° |
| 2026-05-05 17:43 | 51.95398 | 4.43297 | -1 ft | 81 kts | 57° |
| 2026-05-05 17:43 | 51.95832 | 4.44377 | -1 ft | 145 kts | 56° |
| 2026-05-05 17:43 | 51.96471 | 4.45909 | 388 ft | 170 kts | 55° |
| 2026-05-05 17:43 | 51.97082 | 4.47508 | 1259 ft | 173 kts | 58° |
| 2026-05-05 17:44 | 51.97687 | 4.49218 | 2087 ft | 179 kts | 56° |
| 2026-05-05 17:44 | 51.98349 | 4.50987 | 2663 ft | 188 kts | 58° |
| 2026-05-05 17:44 | 51.98995 | 4.52901 | 3142 ft | 197 kts | 61° |
| 2026-05-05 17:44 | 51.99626 | 4.54937 | 3584 ft | 208 kts | 63° |
| 2026-05-05 17:45 | 52.00408 | 4.56993 | 3950 ft | 219 kts | 45° |
| 2026-05-05 17:45 | 52.01595 | 4.58539 | 4483 ft | 225 kts | 30° |
| 2026-05-05 17:45 | 52.03019 | 4.59729 | 4983 ft | 236 kts | 25° |
| 2026-05-05 17:45 | 52.04605 | 4.60856 | 5272 ft | 258 kts | 23° |
| 2026-05-05 17:46 | 52.06102 | 4.62507 | 5901 ft | 266 kts | 49° |
| 2026-05-05 17:46 | 52.06984 | 4.65165 | 6570 ft | 273 kts | 76° |
| 2026-05-05 17:46 | 52.07056 | 4.68258 | 7263 ft | 277 kts | 98° |
| 2026-05-05 17:46 | 52.06661 | 4.71340 | 8001 ft | 280 kts | 103° |
| 2026-05-05 17:47 | 52.06187 | 4.74431 | 8709 ft | 284 kts | 104° |
| 2026-05-05 17:47 | 52.05691 | 4.77564 | 9435 ft | 287 kts | 104° |
| 2026-05-05 17:47 | 52.05191 | 4.80732 | 10113 ft | 291 kts | 104° |
| 2026-05-05 17:47 | 52.04676 | 4.84024 | 10376 ft | 311 kts | 104° |
| 2026-05-05 17:48 | 52.04131 | 4.87546 | 10560 ft | 332 kts | 104° |
| 2026-05-05 17:48 | 52.03559 | 4.91265 | 10723 ft | 352 kts | 104° |
| 2026-05-05 17:48 | 52.02951 | 4.95234 | 10974 ft | 368 kts | 104° |
| 2026-05-05 17:48 | 52.02329 | 4.99306 | 11512 ft | 373 kts | 103° |
| 2026-05-05 17:49 | 52.01701 | 5.03414 | 12217 ft | 374 kts | 103° |
| 2026-05-05 17:49 | 52.01072 | 5.07535 | 12880 ft | 377 kts | 103° |
| 2026-05-05 17:49 | 52.00434 | 5.11702 | 13495 ft | 381 kts | 103° |
| 2026-05-05 17:49 | 51.99796 | 5.15857 | 14081 ft | 384 kts | 103° |
| 2026-05-05 17:50 | 51.99147 | 5.20073 | 14670 ft | 386 kts | 103° |
| 2026-05-05 17:50 | 51.98492 | 5.24323 | 15239 ft | 389 kts | 103° |
| 2026-05-05 17:50 | 51.97832 | 5.28593 | 15792 ft | 392 kts | 104° |
| 2026-05-05 17:50 | 51.97163 | 5.32905 | 16352 ft | 395 kts | 104° |
| 2026-05-05 17:51 | 51.96488 | 5.37251 | 16904 ft | 398 kts | 104° |
| 2026-05-05 17:51 | 51.95806 | 5.41624 | 17442 ft | 401 kts | 104° |
| 2026-05-05 17:51 | 51.95119 | 5.46023 | 18013 ft | 403 kts | 104° |
| 2026-05-05 17:51 | 51.94424 | 5.50459 | 18446 ft | 407 kts | 104° |
| 2026-05-05 17:52 | 51.93732 | 5.54864 | 18889 ft | 410 kts | 105° |
| 2026-05-05 17:52 | 51.93023 | 5.59358 | 19349 ft | 412 kts | 105° |